createdAt,value
2019-03-28T00:00:01.050Z,992.18
2019-03-28T00:05:01.092Z,992.20
2019-03-28T00:10:01.722Z,992.20
2019-03-28T00:15:01.390Z,992.21
2019-03-28T00:20:01.033Z,992.18
2019-03-28T00:25:01.046Z,992.14
2019-03-28T00:30:01.049Z,992.11
2019-03-28T00:35:01.064Z,992.07
2019-03-28T00:40:01.032Z,992.11
2019-03-28T00:45:01.369Z,992.11
2019-03-28T00:50:01.031Z,992.08
2019-03-28T00:55:01.039Z,992.01
2019-03-28T01:00:01.047Z,992.05
2019-03-28T01:05:01.069Z,992.01
2019-03-28T01:10:01.530Z,992.07
2019-03-28T01:15:01.328Z,992.01
2019-03-28T01:20:01.090Z,992.09
2019-03-28T01:25:01.675Z,991.98
2019-03-28T01:30:01.049Z,992.08
2019-03-28T01:35:01.345Z,992.08
2019-03-28T01:40:01.053Z,992.07
2019-03-28T01:45:01.048Z,992.03
2019-03-28T01:50:01.075Z,992.02
2019-03-28T01:55:01.080Z,991.95
2019-03-28T02:00:01.020Z,991.92
2019-03-28T02:05:01.032Z,991.88
2019-03-28T02:10:01.451Z,991.91
2019-03-28T02:15:01.516Z,991.83
2019-03-28T02:20:01.080Z,991.81
2019-03-28T02:25:01.051Z,991.80
2019-03-28T02:30:01.039Z,991.78
2019-03-28T03:05:01.394Z,991.86
2019-03-28T03:10:01.045Z,991.86
2019-03-28T03:15:01.461Z,991.88
2019-03-28T03:20:01.036Z,991.84
2019-03-28T03:25:01.084Z,991.80
2019-03-28T03:30:01.068Z,991.86
2019-03-28T03:35:02.146Z,991.92
2019-03-28T03:40:01.035Z,991.86
2019-03-28T03:45:01.337Z,991.85
2019-03-28T03:50:01.063Z,991.96
2019-03-28T03:55:01.061Z,991.85
2019-03-28T04:00:01.054Z,991.84
2019-03-28T04:05:01.051Z,991.78
2019-03-28T04:10:01.088Z,991.74
2019-03-28T04:15:01.034Z,991.82
2019-03-28T04:20:01.078Z,991.76
2019-03-28T04:25:01.031Z,991.77
2019-03-28T04:30:01.044Z,991.75
2019-03-28T04:35:01.060Z,991.71
2019-03-28T04:40:01.039Z,991.74
2019-03-28T04:45:01.057Z,991.73
2019-03-28T04:50:01.515Z,991.77
2019-03-28T04:55:01.072Z,991.86
2019-03-28T05:00:01.045Z,991.86
2019-03-28T05:05:01.054Z,991.85
2019-03-28T05:10:01.062Z,991.94
2019-03-28T05:15:01.082Z,991.94
2019-03-28T05:20:01.490Z,991.99
2019-03-28T05:25:01.101Z,992.08
2019-03-28T05:30:01.099Z,992.09
2019-03-28T05:35:01.070Z,992.09
2019-03-28T05:40:01.047Z,992.16
2019-03-28T05:45:01.087Z,992.23
2019-03-28T05:50:01.087Z,992.22
2019-03-28T05:55:01.525Z,992.20
2019-03-28T06:00:01.055Z,992.23
2019-03-28T06:05:01.105Z,992.33
2019-03-28T06:10:01.405Z,992.34
2019-03-28T06:15:01.063Z,992.36
2019-03-28T06:20:01.080Z,992.41
2019-03-28T06:25:01.062Z,992.38
2019-03-28T06:30:02.237Z,992.37
2019-03-28T06:35:01.071Z,992.41
2019-03-28T06:40:01.071Z,992.39
2019-03-28T06:45:03.686Z,992.43
2019-03-28T06:50:01.090Z,992.50
2019-03-28T06:55:01.449Z,992.45
2019-03-28T07:00:01.110Z,992.56
2019-03-28T07:05:02.753Z,992.55
2019-03-28T07:10:02.623Z,992.51
2019-03-28T07:15:01.098Z,992.60
2019-03-28T07:20:01.095Z,992.49
2019-03-28T07:25:01.066Z,992.58
2019-03-28T07:30:02.097Z,992.51
2019-03-28T07:35:01.037Z,992.48
2019-03-28T07:40:01.218Z,992.61
2019-03-28T07:45:01.081Z,992.55
2019-03-28T07:50:01.127Z,992.63
2019-03-28T07:55:01.036Z,992.59
2019-03-28T08:00:04.633Z,992.50
2019-03-28T08:05:01.809Z,992.48
2019-03-28T08:10:02.030Z,992.56
2019-03-28T08:15:01.043Z,992.52
2019-03-28T08:20:01.092Z,992.54
2019-03-28T08:25:01.061Z,992.51
2019-03-28T08:30:01.050Z,992.48
2019-03-28T08:35:01.083Z,992.40
2019-03-28T08:40:01.042Z,992.39
2019-03-28T08:45:01.157Z,992.43
2019-03-28T08:50:01.038Z,992.35
2019-03-28T08:55:01.205Z,992.36
2019-03-28T09:05:01.220Z,992.19
2019-03-28T09:10:01.034Z,992.23
2019-03-28T09:20:01.220Z,992.16
2019-03-28T09:25:01.061Z,992.17
2019-03-28T09:30:01.065Z,992.10
2019-03-28T09:35:01.069Z,992.12
2019-03-28T09:40:01.428Z,992.08
2019-03-28T09:45:01.034Z,992.03
2019-03-28T09:50:01.075Z,992.04
2019-03-28T09:55:01.526Z,992.03
2019-03-28T10:00:01.031Z,992.00
2019-03-28T10:05:01.235Z,992.00
2019-03-28T10:10:01.948Z,991.88
2019-03-28T10:15:01.242Z,991.81
2019-03-28T10:20:01.057Z,991.83
2019-03-28T10:25:01.259Z,991.77
2019-03-28T10:30:10.060Z,991.61
2019-03-28T10:35:01.105Z,991.64
2019-03-28T10:40:01.093Z,991.66
2019-03-28T10:45:01.070Z,991.67
2019-03-28T10:50:03.979Z,991.63
2019-03-28T10:55:01.090Z,991.63
2019-03-28T11:00:01.161Z,991.60
2019-03-28T11:05:01.313Z,991.60
2019-03-28T11:10:01.346Z,991.53
2019-03-28T11:15:01.068Z,991.59
2019-03-28T11:20:01.090Z,991.54
2019-03-28T11:25:01.363Z,991.54
2019-03-28T11:30:01.082Z,991.45
2019-03-28T11:35:01.350Z,991.42
2019-03-28T11:40:01.151Z,991.46
2019-03-28T11:45:01.111Z,991.47
2019-03-28T11:50:01.115Z,991.33
2019-03-28T11:55:01.110Z,991.37
2019-03-28T12:00:01.510Z,991.23
2019-03-28T12:05:01.150Z,991.32
2019-03-28T12:10:01.050Z,991.21
2019-03-28T12:15:01.401Z,991.12
2019-03-28T12:20:01.080Z,991.14
2019-03-28T12:25:01.459Z,991.12
2019-03-28T12:30:01.113Z,991.01
2019-03-28T12:35:01.118Z,990.94
2019-03-28T12:40:01.082Z,990.85
2019-03-28T12:45:01.073Z,990.75
2019-03-28T12:50:01.079Z,990.74
2019-03-28T12:55:01.390Z,990.70
2019-03-28T13:00:01.163Z,990.61
2019-03-28T13:05:01.105Z,990.57
2019-03-28T13:10:01.904Z,990.49
2019-03-28T13:15:01.140Z,990.49
2019-03-28T13:20:01.123Z,990.39
2019-03-28T13:25:01.165Z,990.32
2019-03-28T13:30:01.804Z,990.37
2019-03-28T13:35:01.478Z,990.26
2019-03-28T13:40:01.143Z,990.22
2019-03-28T13:45:01.126Z,990.09
2019-03-28T13:50:01.108Z,990.06
2019-03-28T13:55:01.555Z,990.01
2019-03-28T14:00:01.863Z,989.97
2019-03-28T14:05:01.080Z,989.94
2019-03-28T14:10:01.439Z,989.95
2019-03-28T14:15:01.115Z,989.92
2019-03-28T14:20:01.078Z,989.85
2019-03-28T14:25:01.072Z,989.92
2019-03-28T14:30:01.525Z,989.75
2019-03-28T14:35:01.597Z,989.60
2019-03-28T14:40:01.591Z,989.71
2019-03-28T14:45:01.137Z,989.78
2019-03-28T14:50:01.131Z,989.69
2019-03-28T14:55:01.471Z,989.66
2019-03-28T15:00:01.133Z,989.66
2019-03-28T15:05:01.535Z,989.65
2019-03-28T15:10:01.961Z,989.65
2019-03-28T15:15:01.411Z,989.65
2019-03-28T15:20:01.058Z,989.73
2019-03-28T15:25:01.062Z,989.68
2019-03-28T15:30:01.104Z,989.69
2019-03-28T15:35:01.105Z,989.73
2019-03-28T15:40:01.071Z,989.77
2019-03-28T21:00:02.491Z,992.07
2019-03-28T21:05:01.302Z,992.12
2019-03-28T21:10:01.136Z,992.24
2019-03-28T21:15:01.112Z,992.21
2019-03-28T21:20:01.246Z,992.29
2019-03-28T21:25:01.175Z,992.26
2019-03-28T21:30:01.093Z,992.26
2019-03-28T21:35:01.136Z,992.18
2019-03-28T21:40:01.606Z,992.10
2019-03-28T21:45:01.129Z,992.22
2019-03-28T21:50:01.673Z,992.17
2019-03-28T21:55:01.119Z,992.27
2019-03-28T22:00:01.270Z,992.29
2019-03-28T22:05:01.496Z,992.35
2019-03-28T22:10:01.308Z,992.33
2019-03-28T22:15:01.043Z,992.29
2019-03-28T22:20:01.347Z,992.29
2019-03-28T22:25:01.069Z,992.30
2019-03-28T22:30:01.361Z,992.28
2019-03-28T22:35:01.051Z,992.36
2019-03-28T22:40:01.082Z,992.35
2019-03-28T22:45:01.345Z,992.29
2019-03-28T22:50:01.030Z,992.30
2019-03-28T22:55:01.133Z,992.31
2019-03-28T23:00:04.114Z,992.40
2019-03-28T23:05:01.150Z,992.30
2019-03-28T23:10:01.112Z,992.40
2019-03-28T23:15:01.367Z,992.42
2019-03-28T23:20:01.089Z,992.46
2019-03-28T23:25:01.343Z,992.40
2019-03-28T23:30:01.052Z,992.43
2019-03-28T23:35:01.070Z,992.49
2019-03-28T23:40:01.376Z,992.55
2019-03-28T23:45:01.036Z,992.52
2019-03-28T23:50:01.102Z,992.56
2019-03-28T23:55:01.066Z,992.60
